Aérodrome :
LOGIN :

S'inscrire | Disclaimer

   EN    FR    IT 

 










Légende :    VFR   VFR Marginal   IFR   IFR Intensif   IFR Très Intensif
Visi : 
Plafond : 
>= 8 km
>= 3000ft
5 à 8 km
1000 à 3000 ft
1500m à 5 km
500 à 1000 ft
800 à 1500m
200 à 500 ft
< 800m
< 200 ft
Symboles :   Orages  Brouillard  Fortes neiges  Fortes précipitations  Vent > 20 kt
SIGMETs :   Divers  Orages  Givrage  Turbulence  Onde Orograph.  Cendres Volcan.







- Altitude de l'aérodrome : 122 ft
- Code IATA : TXL


EDDT - Berlin Tegel Int.

DERNIER METAR :
  • 141450Z 24010KT 220V280 9999 FEW040 BKN070 23/14 Q1010 NOSIG

METARs EXPIRÉS :
  • 141420Z 26012KT 220V290 9999 FEW040 BKN070 23/13 Q1010 NOSIG
  • 141350Z 25009KT 220V300 9999 FEW040 BKN080 23/13 Q1010 TEMPO 27015G25KT
  • 141320Z 24011KT 9999 FEW043 BKN070 22/14 Q1010 TEMPO 27015G25KT
  • 141250Z 24016KT 9999 SCT040 BKN060 23/13 Q1010 TEMPO 27015G25KT
  • 141220Z 26013KT 9999 FEW045 BKN060 24/13 Q1010 TEMPO 27015G25KT

TAF TAF EDDT
Valide du 14 à 12h jusqu'au 15 à 12h UTC


141100Z 1412/1512 27012KT 9999 BKN035
TEMPO 1412/1416 27015G25KT
BECMG 1417/1419 27006KT
Pas de NOTAMs connus pour ce terrain.



MET'MAP, la Météo Aéronautique d'un coup d'oeil ! - Copyright ORBIFLY Décembre 2007 - Disclaimer

ORBIFLY MET'MAP TEAM :

Programmation & Développement : Alexandra Zaïnal
Conception & Développement : Baudouin d'Aumeries
Co-Programmation & Développement : Marc-Olivier Méhu
Soutien technique & logistique : Manuel Goepfert

Contact : metmap@orbifly.com




SOURCES & CREDITS :

   NOAA